Terminal Aerodrome Forecast
Issued by NWS Goodland, KS

Home | Current Version | Previous Version | Text Only | Print | Product List | Glossary On
Versions: 1 2 3 4 5 6 7 8 9 10 11 12 13 14 15 16 17
000
FTUS43 KGLD 260740 AAB
TAFGLD
TAF AMD
KGLD 260740Z 2608/2706 32016KT P6SM -SN FEW008 SCT015 OVC035
      TEMPO 2608/2609 BKN015
     FM261000 33014KT P6SM SCT025 OVC060
     FM262200 27008KT P6SM SCT050=

USA.gov is the U.S. government's official web portal to all federal, state and local government web resources and services.